Guaraci, Brazil
Current Conditions -  °F | °C
As of 8:00 PM on Thursday 18 Dec 2014 (Local Time) from SBSR Reporting Station
Broken Clouds Broken Clouds  
Wind Chill: 88°   Ceiling: 3500
Heat Index: 88°   Visibility: 6mi
Dew Point: 63°   Wind: 3mph
Humidity: 43%   Direction: 360°N
Pressure: 29.8"   Gusts: NA
Location:  20.5°S, 48.94°W
Report Text: SBSR 182200Z 36003KT 9999 BKN035 FEW040TCU BKN070 31/17 Q1009
Loading
Personal Weather Stations






























Interactive Weather Map New forecast layout! Learn more

10-Day Weather Forecast

Advertisements
Track Severe Weather on mobile